Time;durP1;ratioP1;P1;durP2;ratioP2;P2;SDS_P1;SDS_P2;PMS_P1;PMS_P2;Temp;Humidity;BMP_temperature;BMP_pressure;BME280_temperature;BME280_humidity;BME280_pressure;Samples;Min_cycle;Max_cycle;Signal;HPM_P1;HPM_P2
2023/02/28 00:02:21;;;;;;;2.75;1.92;;;;;;;;;;5115538;28;20534;-80
2023/02/28 00:04:52;;;;;;;2.85;2.55;;;;;;;;;;5096967;28;20215;-81
2023/02/28 00:07:18;;;;;;;2.85;2.25;;;;;;;;;;5081418;28;20183;-80
2023/02/28 00:09:44;;;;;;;3.53;2.10;;;;;;;;;;5114967;28;20182;-80
2023/02/28 00:12:10;;;;;;;5.30;3.17;;;;;;;;;;5115547;28;20184;-80
2023/02/28 00:14:37;;;;;;;3.88;2.40;;;;;;;;;;5097764;28;20179;-80
2023/02/28 00:17:03;;;;;;;5.57;2.50;;;;;;;;;;5097029;28;20634;-79
2023/02/28 00:19:29;;;;;;;4.55;2.92;;;;;;;;;;5097439;28;20179;-80
2023/02/28 00:21:55;;;;;;;5.78;2.97;;;;;;;;;;5096551;28;20321;-80
2023/02/28 00:24:20;;;;;;;5.20;2.63;;;;;;;;;;5097155;28;20239;-80
2023/02/28 00:26:46;;;;;;;3.65;2.33;;;;;;;;;;5115280;28;20850;-80
2023/02/28 00:29:12;;;;;;;3.80;2.40;;;;;;;;;;5115480;28;20195;-80
2023/02/28 00:31:38;;;;;;;8.30;2.90;;;;;;;;;;5076284;28;20434;-79
2023/02/28 00:34:04;;;;;;;5.90;2.63;;;;;;;;;;5081888;28;20690;-79
2023/02/28 00:36:30;;;;;;;4.87;2.70;;;;;;;;;;5076336;28;20430;-79
2023/02/28 00:38:56;;;;;;;8.70;2.20;;;;;;;;;;5093826;28;20402;-78
2023/02/28 00:41:22;;;;;;;4.25;2.35;;;;;;;;;;5061012;28;20176;-79
2023/02/28 00:43:48;;;;;;;4.00;2.80;;;;;;;;;;5094247;28;20191;-79
2023/02/28 00:46:14;;;;;;;2.72;2.25;;;;;;;;;;5093894;28;20203;-78
2023/02/28 00:48:40;;;;;;;2.97;2.45;;;;;;;;;;5094420;28;20168;-80
2023/02/28 00:51:06;;;;;;;4.25;2.85;;;;;;;;;;5095155;28;20199;-77
2023/02/28 00:53:32;;;;;;;3.95;2.67;;;;;;;;;;5079169;28;20187;-78
2023/02/28 00:55:58;;;;;;;5.22;2.92;;;;;;;;;;5098266;28;20183;-78
2023/02/28 00:58:24;;;;;;;4.60;2.28;;;;;;;;;;5098497;28;20553;-78
2023/02/28 01:00:51;;;;;;;5.60;2.92;;;;;;;;;;5079029;28;20176;-79
2023/02/28 01:03:18;;;;;;;4.65;3.22;;;;;;;;;;5098366;28;20255;-78
2023/02/28 01:05:44;;;;;;;4.28;2.85;;;;;;;;;;5097743;28;20235;-80
2023/02/28 01:08:10;;;;;;;7.60;2.65;;;;;;;;;;5079130;28;20179;-79
2023/02/28 01:10:36;;;;;;;4.75;2.75;;;;;;;;;;5080093;28;20172;-79
2023/02/28 01:13:02;;;;;;;4.55;2.90;;;;;;;;;;5097598;28;20536;-78
2023/02/28 01:15:29;;;;;;;4.13;3.08;;;;;;;;;;5097352;28;20184;-80
2023/02/28 01:17:55;;;;;;;3.53;2.58;;;;;;;;;;5080143;28;20529;-79
2023/02/28 01:20:20;;;;;;;4.07;3.03;;;;;;;;;;5079597;28;20172;-79
2023/02/28 01:22:47;;;;;;;5.53;2.65;;;;;;;;;;5079152;28;20661;-80
2023/02/28 01:25:13;;;;;;;3.58;2.97;;;;;;;;;;5096677;28;20204;-79
2023/02/28 01:27:39;;;;;;;4.07;3.20;;;;;;;;;;5097672;28;20184;-79
2023/02/28 01:30:05;;;;;;;3.65;2.20;;;;;;;;;;5097603;28;20567;-79
2023/02/28 01:32:31;;;;;;;3.67;2.50;;;;;;;;;;5098431;28;20175;-79
2023/02/28 01:34:57;;;;;;;4.63;2.63;;;;;;;;;;5105185;28;20259;-79
2023/02/28 01:37:23;;;;;;;7.20;2.50;;;;;;;;;;5080354;28;20420;-78
2023/02/28 01:39:49;;;;;;;5.75;2.72;;;;;;;;;;5097848;28;20406;-78
2023/02/28 01:42:15;;;;;;;4.72;2.83;;;;;;;;;;5099384;28;20176;-78
2023/02/28 01:45:02;;;;;;;2.47;2.28;;;;;;;;;;5063855;28;20577;-78
2023/02/28 01:47:47;;;;;;;2.88;2.60;;;;;;;;;;5079451;28;20199;-78
2023/02/28 01:50:16;;;;;;;6.43;2.95;;;;;;;;;;5098085;28;20203;-78
2023/02/28 01:52:43;;;;;;;3.67;2.45;;;;;;;;;;5096444;28;20172;-79
2023/02/28 01:55:11;;;;;;;3.92;3.22;;;;;;;;;;5079550;28;20180;-79
2023/02/28 01:57:41;;;;;;;4.43;2.70;;;;;;;;;;5097409;28;20610;-80
2023/02/28 02:00:15;;;;;;;5.97;2.80;;;;;;;;;;5096909;28;20172;-79
2023/02/28 02:02:46;;;;;;;9.20;2.90;;;;;;;;;;5078860;28;20175;-80
2023/02/28 02:05:17;;;;;;;2.60;2.40;;;;;;;;;;5097408;28;20360;-80
2023/02/28 02:07:45;;;;;;;4.65;2.80;;;;;;;;;;5096609;28;20654;-78
2023/02/28 02:10:18;;;;;;;3.00;2.10;;;;;;;;;;5097481;28;20176;-78
2023/02/28 02:13:03;;;;;;;3.85;2.30;;;;;;;;;;5078834;28;20189;-80
2023/02/28 02:15:35;;;;;;;2.92;2.20;;;;;;;;;;5096308;28;20179;-79
2023/02/28 02:18:11;;;;;;;7.85;2.50;;;;;;;;;;5096789;28;20172;-79
2023/02/28 02:20:43;;;;;;;3.35;2.30;;;;;;;;;;5096758;28;20171;-79
2023/02/28 02:23:28;;;;;;;8.02;2.47;;;;;;;;;;5095492;28;20213;-78
2023/02/28 02:25:57;;;;;;;2.63;2.13;;;;;;;;;;5096609;28;20207;-79
2023/02/28 02:28:38;;;;;;;3.72;2.60;;;;;;;;;;5078226;28;20701;-79
2023/02/28 02:31:13;;;;;;;3.90;2.83;;;;;;;;;;5077817;28;20193;-79
2023/02/28 02:33:51;;;;;;;7.18;2.58;;;;;;;;;;5099740;28;20309;-80
2023/02/28 02:36:26;;;;;;;3.95;2.65;;;;;;;;;;5101816;28;20188;-78
2023/02/28 02:39:12;;;;;;;6.22;2.60;;;;;;;;;;5095916;28;20177;-80
2023/02/28 02:41:46;;;;;;;5.03;2.40;;;;;;;;;;5064223;28;20184;-79
2023/02/28 02:44:24;;;;;;;7.30;2.47;;;;;;;;;;5078014;28;20218;-80
2023/02/28 02:46:52;;;;;;;3.90;2.42;;;;;;;;;;5096056;28;20203;-79
2023/02/28 02:49:47;;;;;;;3.40;2.58;;;;;;;;;;5096459;28;20171;-78
2023/02/28 02:52:15;;;;;;;2.67;2.45;;;;;;;;;;5078625;28;20184;-78
2023/02/28 02:54:42;;;;;;;3.25;2.17;;;;;;;;;;5096348;28;20240;-79
2023/02/28 02:57:14;;;;;;;4.20;2.60;;;;;;;;;;5096771;28;20259;-79
2023/02/28 02:59:42;;;;;;;3.42;2.55;;;;;;;;;;5077930;28;20263;-79
2023/02/28 03:02:11;;;;;;;3.15;2.25;;;;;;;;;;5095902;28;20172;-80
2023/02/28 03:04:41;;;;;;;4.63;2.85;;;;;;;;;;5095576;28;20267;-80
2023/02/28 03:07:07;;;;;;;5.38;2.70;;;;;;;;;;5076980;28;20203;-79
2023/02/28 03:09:33;;;;;;;7.65;4.15;;;;;;;;;;5096439;28;20527;-79
2023/02/28 03:12:00;;;;;;;6.68;2.92;;;;;;;;;;5095732;28;20624;-79
2023/02/28 03:14:33;;;;;;;3.95;2.80;;;;;;;;;;5094333;28;20532;-79
2023/02/28 03:17:18;;;;;;;4.97;2.65;;;;;;;;;;5076962;28;20203;-79
2023/02/28 03:19:49;;;;;;;3.83;2.55;;;;;;;;;;5095741;28;20183;-80
2023/02/28 03:22:29;;;;;;;4.75;3.80;;;;;;;;;;5095299;28;20639;-80
2023/02/28 03:24:55;;;;;;;4.20;2.42;;;;;;;;;;5095227;28;20172;-80
2023/02/28 03:27:24;;;;;;;2.50;2.20;;;;;;;;;;5095167;28;20320;-79
2023/02/28 03:30:01;;;;;;;3.83;2.70;;;;;;;;;;5094450;28;20419;-79
2023/02/28 03:32:30;;;;;;;3.83;2.83;;;;;;;;;;5095138;28;20631;-79
2023/02/28 03:35:12;;;;;;;3.40;2.42;;;;;;;;;;5097942;28;20188;-79
2023/02/28 03:37:40;;;;;;;3.28;2.40;;;;;;;;;;5080683;28;20188;-80
2023/02/28 03:40:11;;;;;;;4.28;2.20;;;;;;;;;;5095335;28;20167;-79
2023/02/28 03:42:38;;;;;;;3.78;2.60;;;;;;;;;;5078365;28;20267;-80
2023/02/28 03:45:24;;;;;;;3.58;2.70;;;;;;;;;;5094068;28;20569;-79
2023/02/28 03:47:55;;;;;;;3.67;3.05;;;;;;;;;;5094705;28;20214;-80
2023/02/28 03:50:22;;;;;;;3.42;2.25;;;;;;;;;;5095171;28;20560;-79
2023/02/28 03:52:59;;;;;;;3.75;2.88;;;;;;;;;;5094736;28;20168;-79
2023/02/28 03:55:25;;;;;;;4.35;3.20;;;;;;;;;;5077754;28;20225;-78
2023/02/28 03:57:57;;;;;;;4.68;2.70;;;;;;;;;;5094547;28;20180;-79
2023/02/28 04:00:29;;;;;;;5.35;3.03;;;;;;;;;;5094631;28;20254;-79
2023/02/28 04:02:55;;;;;;;3.40;3.10;;;;;;;;;;5095020;28;20183;-79
2023/02/28 04:05:22;;;;;;;3.20;2.90;;;;;;;;;;5077835;28;20273;-80
2023/02/28 04:07:48;;;;;;;4.45;3.30;;;;;;;;;;5096077;28;20194;-81
2023/02/28 04:10:15;;;;;;;5.43;3.03;;;;;;;;;;5078350;28;20172;-80
2023/02/28 04:12:41;;;;;;;6.80;3.40;;;;;;;;;;5096036;28;20176;-80
2023/02/28 04:15:07;;;;;;;5.22;3.50;;;;;;;;;;5076918;28;20181;-79
2023/02/28 04:17:33;;;;;;;3.80;3.15;;;;;;;;;;5095641;28;20171;-79
2023/02/28 04:19:59;;;;;;;5.88;3.75;;;;;;;;;;5095111;28;20170;-79
2023/02/28 04:22:28;;;;;;;4.50;3.40;;;;;;;;;;5077569;28;20657;-79
2023/02/28 04:24:54;;;;;;;7.32;3.10;;;;;;;;;;5094801;28;20258;-80
2023/02/28 04:27:21;;;;;;;6.63;3.70;;;;;;;;;;5097076;28;20172;-79
2023/02/28 04:29:47;;;;;;;3.85;2.88;;;;;;;;;;5099214;28;20217;-79
2023/02/28 04:32:13;;;;;;;6.03;3.30;;;;;;;;;;5081336;28;20171;-79
2023/02/28 04:34:39;;;;;;;6.13;3.45;;;;;;;;;;5098783;28;20175;-79
2023/02/28 04:37:05;;;;;;;4.82;3.70;;;;;;;;;;5098537;28;20183;-79
2023/02/28 04:39:35;;;;;;;4.63;3.15;;;;;;;;;;5098954;28;20253;-79
2023/02/28 04:42:01;;;;;;;5.20;3.10;;;;;;;;;;5080228;28;20176;-79
2023/02/28 04:44:27;;;;;;;3.75;3.22;;;;;;;;;;5080898;28;20179;-79
2023/02/28 04:46:53;;;;;;;4.13;3.23;;;;;;;;;;5098548;28;20661;-80
2023/02/28 04:49:19;;;;;;;4.70;3.17;;;;;;;;;;5099479;28;20819;-79
2023/02/28 04:51:45;;;;;;;3.30;3.00;;;;;;;;;;5098741;28;20168;-79
2023/02/28 04:54:11;;;;;;;4.40;3.40;;;;;;;;;;5098797;28;20406;-79
2023/02/28 04:56:37;;;;;;;5.15;3.42;;;;;;;;;;5099307;28;20259;-78
2023/02/28 04:59:03;;;;;;;4.82;3.63;;;;;;;;;;5098282;28;20172;-78
2023/02/28 05:01:32;;;;;;;6.90;4.13;;;;;;;;;;5080559;28;20224;-79
2023/02/28 05:03:58;;;;;;;20.20;4.43;;;;;;;;;;5079894;28;20229;-78
2023/02/28 05:06:25;;;;;;;4.85;4.00;;;;;;;;;;5079876;28;20232;-79
2023/02/28 05:08:52;;;;;;;4.15;3.45;;;;;;;;;;5080229;28;20180;-79
2023/02/28 05:11:29;;;;;;;3.00;2.70;;;;;;;;;;5098213;28;20172;-79
2023/02/28 05:13:55;;;;;;;3.53;3.22;;;;;;;;;;5097999;28;20199;-79
2023/02/28 05:16:21;;;;;;;5.35;4.10;;;;;;;;;;5079834;28;20185;-78
2023/02/28 05:18:47;;;;;;;4.55;3.83;;;;;;;;;;5098368;28;20164;-78
2023/02/28 05:21:33;;;;;;;5.70;4.55;;;;;;;;;;5097764;28;20173;-79
2023/02/28 05:24:04;;;;;;;11.48;4.07;;;;;;;;;;5097963;28;20179;-79
2023/02/28 05:26:31;;;;;;;4.68;3.55;;;;;;;;;;5079837;28;20211;-78
2023/02/28 05:28:57;;;;;;;5.10;3.30;;;;;;;;;;5079609;28;20176;-78
2023/02/28 05:31:23;;;;;;;8.07;3.85;;;;;;;;;;5080009;28;20218;-80
2023/02/28 05:33:49;;;;;;;5.75;2.75;;;;;;;;;;5080150;28;20206;-80
2023/02/28 05:36:15;;;;;;;4.70;4.05;;;;;;;;;;5097974;28;20559;-80
2023/02/28 05:38:41;;;;;;;4.00;3.25;;;;;;;;;;5098176;28;20174;-78
2023/02/28 05:41:08;;;;;;;4.20;3.17;;;;;;;;;;5097590;28;20184;-79
2023/02/28 05:43:34;;;;;;;5.25;3.40;;;;;;;;;;5079523;28;20215;-79
2023/02/28 05:46:02;;;;;;;5.45;3.20;;;;;;;;;;5097009;28;20208;-80
2023/02/28 05:48:28;;;;;;;4.10;3.70;;;;;;;;;;5097896;28;20183;-80
2023/02/28 05:50:54;;;;;;;5.97;3.80;;;;;;;;;;5097862;28;20179;-80
2023/02/28 05:53:20;;;;;;;4.43;3.13;;;;;;;;;;5062910;28;20518;-80
2023/02/28 05:55:46;;;;;;;4.82;3.95;;;;;;;;;;5079722;28;20420;-80
2023/02/28 05:58:12;;;;;;;4.90;3.37;;;;;;;;;;5097397;28;20636;-79
2023/02/28 06:00:38;;;;;;;4.40;3.05;;;;;;;;;;5097481;28;20758;-80
2023/02/28 06:03:04;;;;;;;3.67;3.08;;;;;;;;;;5079137;28;20176;-79
2023/02/28 06:05:30;;;;;;;3.38;3.08;;;;;;;;;;5096881;28;20228;-79
2023/02/28 06:07:56;;;;;;;4.32;3.70;;;;;;;;;;5079183;28;20191;-79
2023/02/28 06:10:22;;;;;;;5.82;3.90;;;;;;;;;;5078576;28;20535;-79
2023/02/28 06:12:48;;;;;;;5.45;4.18;;;;;;;;;;5097620;28;20177;-79
2023/02/28 06:15:14;;;;;;;6.70;3.80;;;;;;;;;;5078446;28;20195;-78
2023/02/28 06:17:41;;;;;;;4.63;3.55;;;;;;;;;;5079092;28;20613;-78
2023/02/28 06:20:08;;;;;;;10.18;4.80;;;;;;;;;;5078188;28;20185;-78
2023/02/28 06:22:34;;;;;;;8.85;4.90;;;;;;;;;;5078864;28;20180;-78
2023/02/28 06:25:00;;;;;;;4.38;3.20;;;;;;;;;;5096819;28;20529;-80
2023/02/28 06:27:26;;;;;;;8.27;4.20;;;;;;;;;;5079392;28;20172;-78
2023/02/28 06:29:55;;;;;;;5.85;3.85;;;;;;;;;;5079441;28;20504;-78
2023/02/28 06:32:21;;;;;;;3.40;3.10;;;;;;;;;;5096752;28;20170;-78
2023/02/28 06:34:47;;;;;;;3.70;2.87;;;;;;;;;;5061626;28;20214;-78
2023/02/28 06:37:13;;;;;;;4.93;3.60;;;;;;;;;;5096113;28;20417;-79
2023/02/28 06:39:39;;;;;;;4.00;3.38;;;;;;;;;;5096483;28;20192;-79
2023/02/28 06:42:05;;;;;;;3.35;2.95;;;;;;;;;;5077961;28;20267;-79
2023/02/28 06:44:35;;;;;;;4.47;3.38;;;;;;;;;;5096220;28;20175;-79
2023/02/28 06:47:05;;;;;;;7.75;4.05;;;;;;;;;;5078927;28;20212;-79
2023/02/28 06:49:35;;;;;;;4.90;3.15;;;;;;;;;;5096107;28;20180;-79
2023/02/28 06:52:01;;;;;;;4.63;3.70;;;;;;;;;;5096547;28;20179;-80
2023/02/28 06:54:27;;;;;;;3.88;3.10;;;;;;;;;;5096615;28;20188;-79
2023/02/28 06:56:54;;;;;;;5.18;3.17;;;;;;;;;;5096523;28;20179;-79
2023/02/28 06:59:20;;;;;;;5.60;3.65;;;;;;;;;;5078941;28;20226;-79
2023/02/28 07:01:46;;;;;;;7.85;3.90;;;;;;;;;;5078949;28;20176;-79
2023/02/28 07:04:13;;;;;;;3.42;3.00;;;;;;;;;;5062742;28;20181;-79
2023/02/28 07:06:39;;;;;;;3.83;3.45;;;;;;;;;;5096251;28;20232;-79
2023/02/28 07:09:05;;;;;;;4.40;3.60;;;;;;;;;;5095706;28;20267;-79
2023/02/28 07:11:31;;;;;;;5.57;3.30;;;;;;;;;;5060895;28;20439;-78
2023/02/28 07:13:57;;;;;;;5.70;3.67;;;;;;;;;;5095797;28;20168;-80
2023/02/28 07:16:25;;;;;;;5.70;3.40;;;;;;;;;;5077134;28;20252;-78
2023/02/28 07:18:52;;;;;;;8.55;4.28;;;;;;;;;;5095500;28;20176;-81
2023/02/28 07:21:19;;;;;;;4.85;3.95;;;;;;;;;;5095023;28;20254;-79
2023/02/28 07:23:45;;;;;;;6.80;4.22;;;;;;;;;;5095957;28;20255;-80
2023/02/28 07:26:15;;;;;;;3.40;2.85;;;;;;;;;;5095488;28;20298;-81
2023/02/28 07:28:44;;;;;;;5.97;3.60;;;;;;;;;;5095766;28;20187;-81
2023/02/28 07:31:11;;;;;;;7.80;3.90;;;;;;;;;;5095508;28;20298;-81
2023/02/28 07:33:37;;;;;;;4.65;3.25;;;;;;;;;;5095502;28;20180;-79
2023/02/28 07:36:14;;;;;;;7.72;3.80;;;;;;;;;;5095140;28;20305;-80
2023/02/28 07:38:41;;;;;;;3.97;2.95;;;;;;;;;;5077981;28;20272;-78
2023/02/28 07:41:08;;;;;;;3.50;3.20;;;;;;;;;;5095103;28;20194;-80
2023/02/28 07:43:33;;;;;;;6.75;3.30;;;;;;;;;;5095334;28;20228;-81
2023/02/28 07:46:10;;;;;;;4.97;2.95;;;;;;;;;;5077400;28;20210;-81
2023/02/28 07:48:36;;;;;;;6.70;3.40;;;;;;;;;;5096126;28;20172;-79
2023/02/28 07:51:03;;;;;;;2.92;2.53;;;;;;;;;;5077525;28;20304;-79
2023/02/28 07:53:29;;;;;;;5.10;2.70;;;;;;;;;;5095174;28;20198;-79
2023/02/28 07:55:56;;;;;;;3.75;3.00;;;;;;;;;;5076872;28;20662;-79
2023/02/28 07:58:22;;;;;;;4.05;2.80;;;;;;;;;;5094868;28;20180;-78
2023/02/28 08:00:48;;;;;;;3.75;3.05;;;;;;;;;;5095259;28;20259;-81
2023/02/28 08:03:14;;;;;;;3.67;3.03;;;;;;;;;;5060684;28;20200;-78
2023/02/28 08:05:40;;;;;;;3.78;2.85;;;;;;;;;;5095106;28;21037;-81
2023/02/28 08:08:07;;;;;;;2.22;2.03;;;;;;;;;;5095428;28;20180;-81
2023/02/28 08:10:33;;;;;;;2.70;2.42;;;;;;;;;;5095202;28;20182;-81
2023/02/28 08:12:59;;;;;;;3.95;2.88;;;;;;;;;;5077532;28;20180;-80
2023/02/28 08:15:25;;;;;;;3.37;2.53;;;;;;;;;;5095243;28;20197;-80
2023/02/28 08:17:51;;;;;;;3.78;2.15;;;;;;;;;;5095457;28;20410;-80
2023/02/28 08:20:17;;;;;;;2.30;2.10;;;;;;;;;;5076912;28;20208;-80
2023/02/28 08:22:43;;;;;;;3.47;2.80;;;;;;;;;;5095088;28;20413;-80
2023/02/28 08:25:09;;;;;;;3.10;2.40;;;;;;;;;;5076870;28;20617;-79
2023/02/28 08:27:35;;;;;;;3.05;1.80;;;;;;;;;;5077180;28;20169;-80
2023/02/28 08:30:02;;;;;;;1.98;1.83;;;;;;;;;;5095099;28;20176;-80
2023/02/28 08:32:28;;;;;;;1.80;1.70;;;;;;;;;;5076761;28;20188;-80
2023/02/28 08:34:54;;;;;;;5.28;2.42;;;;;;;;;;5095560;28;20176;-80
2023/02/28 08:37:20;;;;;;;8.20;2.20;;;;;;;;;;5077694;28;20675;-81
2023/02/28 08:39:47;;;;;;;3.15;1.95;;;;;;;;;;5095086;28;20169;-80
2023/02/28 08:42:13;;;;;;;1.90;1.77;;;;;;;;;;5094826;28;20175;-80
2023/02/28 08:44:40;;;;;;;3.70;1.90;;;;;;;;;;5077773;28;20181;-80
2023/02/28 08:47:06;;;;;;;2.33;1.92;;;;;;;;;;5077343;28;20254;-80
2023/02/28 08:49:32;;;;;;;1.90;1.60;;;;;;;;;;5076660;28;20180;-80
2023/02/28 08:51:58;;;;;;;5.15;2.30;;;;;;;;;;5077202;28;20794;-80
2023/02/28 08:54:24;;;;;;;1.77;1.67;;;;;;;;;;5094640;28;20176;-80
2023/02/28 08:56:50;;;;;;;1.70;1.60;;;;;;;;;;5094913;28;20471;-80
2023/02/28 08:59:16;;;;;;;1.60;1.50;;;;;;;;;;5076760;28;20215;-79
2023/02/28 09:01:43;;;;;;;3.15;1.45;;;;;;;;;;5094956;28;20206;-80
2023/02/28 09:04:11;;;;;;;1.60;1.50;;;;;;;;;;5094622;28;20218;-80
2023/02/28 09:06:37;;;;;;;2.17;1.70;;;;;;;;;;5094083;28;20329;-80
2023/02/28 09:09:05;;;;;;;2.85;2.10;;;;;;;;;;5094808;28;20221;-79
2023/02/28 09:11:31;;;;;;;3.33;1.70;;;;;;;;;;5094444;28;20510;-79
2023/02/28 09:14:00;;;;;;;4.50;2.03;;;;;;;;;;5079103;28;20261;-80
2023/02/28 09:16:26;;;;;;;1.45;1.35;;;;;;;;;;5080008;28;20418;-81
2023/02/28 09:18:52;;;;;;;2.70;1.08;;;;;;;;;;5098135;28;20185;-80
2023/02/28 09:21:19;;;;;;;1.25;1.15;;;;;;;;;;5098195;28;20224;-80
2023/02/28 09:23:46;;;;;;;1.60;1.42;;;;;;;;;;5098431;28;20174;-80
2023/02/28 09:26:16;;;;;;;3.28;1.27;;;;;;;;;;5080001;28;20199;-80
2023/02/28 09:28:42;;;;;;;1.40;1.20;;;;;;;;;;5098473;28;20168;-80
2023/02/28 09:31:12;;;;;;;1.60;1.50;;;;;;;;;;5098165;28;20217;-80
2023/02/28 09:33:38;;;;;;;1.90;1.60;;;;;;;;;;5098430;28;20456;-80
2023/02/28 09:36:04;;;;;;;2.35;1.30;;;;;;;;;;5079518;28;20211;-79
2023/02/28 09:38:30;;;;;;;1.58;1.20;;;;;;;;;;5097718;28;20258;-80
2023/02/28 09:40:59;;;;;;;1.73;1.58;;;;;;;;;;5079771;28;20543;-81
2023/02/28 09:43:27;;;;;;;1.50;1.30;;;;;;;;;;5097745;28;20523;-80
2023/02/28 09:45:58;;;;;;;2.17;1.40;;;;;;;;;;5097736;28;20203;-80
2023/02/28 09:48:27;;;;;;;1.83;1.60;;;;;;;;;;5079681;28;20212;-80
2023/02/28 09:50:58;;;;;;;4.68;1.30;;;;;;;;;;5098178;28;20554;-80
2023/02/28 09:53:33;;;;;;;4.72;1.60;;;;;;;;;;5098282;28;20156;-80
2023/02/28 09:56:01;;;;;;;3.30;1.50;;;;;;;;;;5079786;28;20179;-80
2023/02/28 09:58:30;;;;;;;1.75;1.50;;;;;;;;;;5097454;28;20179;-80
2023/02/28 10:00:59;;;;;;;2.30;1.33;;;;;;;;;;5098140;28;20535;-80
2023/02/28 10:03:36;;;;;;;1.77;1.67;;;;;;;;;;5097995;28;20174;-80
2023/02/28 10:06:09;;;;;;;2.28;1.45;;;;;;;;;;5097361;28;20235;-80
2023/02/28 10:08:42;;;;;;;3.70;1.27;;;;;;;;;;5097163;28;20543;-80
2023/02/28 10:11:10;;;;;;;3.88;1.40;;;;;;;;;;5079476;28;20237;-80
2023/02/28 10:13:57;;;;;;;1.90;1.35;;;;;;;;;;5097293;28;20165;-80
2023/02/28 10:16:23;;;;;;;4.15;1.17;;;;;;;;;;5080055;28;20237;-80
2023/02/28 10:18:52;;;;;;;4.20;1.95;;;;;;;;;;5098343;28;20172;-79
2023/02/28 10:21:24;;;;;;;1.50;1.40;;;;;;;;;;5080266;28;20182;-80
2023/02/28 10:23:53;;;;;;;1.60;1.00;;;;;;;;;;5096976;28;20367;-80
2023/02/28 10:26:19;;;;;;;1.80;1.70;;;;;;;;;;5097334;28;20203;-81
2023/02/28 10:28:45;;;;;;;3.38;2.00;;;;;;;;;;5079154;28;20187;-80
2023/02/28 10:31:16;;;;;;;2.67;1.83;;;;;;;;;;5097021;28;20208;-80
2023/02/28 10:33:42;;;;;;;2.57;1.43;;;;;;;;;;5098004;28;20499;-80
2023/02/28 10:36:12;;;;;;;2.23;1.60;;;;;;;;;;5097610;28;20443;-81
2023/02/28 10:38:39;;;;;;;1.93;1.57;;;;;;;;;;5096633;28;20406;-80
2023/02/28 10:41:07;;;;;;;2.13;1.73;;;;;;;;;;5097182;28;20401;-80
2023/02/28 10:43:33;;;;;;;1.67;1.40;;;;;;;;;;5096735;28;20453;-80
2023/02/28 10:46:01;;;;;;;2.33;1.33;;;;;;;;;;5096878;28;20565;-80
2023/02/28 10:48:37;;;;;;;2.20;1.60;;;;;;;;;;5096385;28;20415;-78
2023/02/28 10:51:04;;;;;;;1.37;1.27;;;;;;;;;;5099555;28;20401;-83
2023/02/28 10:53:33;;;;;;;1.50;1.40;;;;;;;;;;5081795;28;20419;-82
2023/02/28 10:56:01;;;;;;;1.67;1.40;;;;;;;;;;5114776;28;20421;-82
2023/02/28 10:58:45;;;;;;;1.70;1.60;;;;;;;;;;5114142;28;20402;-82
2023/02/28 11:01:16;;;;;;;2.73;1.90;;;;;;;;;;5078730;28;20938;-85
2023/02/28 11:03:42;;;;;;;1.90;1.53;;;;;;;;;;5096464;28;20477;-82
2023/02/28 11:06:13;;;;;;;2.27;1.30;;;;;;;;;;5096662;28;20482;-84
2023/02/28 11:08:50;;;;;;;1.60;1.37;;;;;;;;;;5096168;28;20387;-80
2023/02/28 11:11:16;;;;;;;1.83;1.63;;;;;;;;;;5104242;28;20389;-85
2023/02/28 11:13:44;;;;;;;1.83;1.73;;;;;;;;;;5080981;28;20473;-81
2023/02/28 11:16:11;;;;;;;1.80;1.40;;;;;;;;;;5115975;28;20393;-82
2023/02/28 11:18:50;;;;;;;2.30;1.90;;;;;;;;;;5097587;28;20409;-81
2023/02/28 11:21:19;;;;;;;2.40;1.47;;;;;;;;;;5097726;28;20417;-85
2023/02/28 11:23:45;;;;;;;2.80;1.60;;;;;;;;;;5115697;28;20889;-83
2023/02/28 11:26:11;;;;;;;2.07;1.50;;;;;;;;;;5115184;27;20487;-82
2023/02/28 11:28:41;;;;;;;6.00;2.30;;;;;;;;;;5135543;27;20401;-81
2023/02/28 11:31:16;;;;;;;1.80;1.57;;;;;;;;;;5136302;27;20393;-80
2023/02/28 11:33:56;;;;;;;2.93;2.07;;;;;;;;;;5117676;27;20476;-80
2023/02/28 11:36:24;;;;;;;2.00;1.80;;;;;;;;;;5135861;27;20412;-80
2023/02/28 11:38:50;;;;;;;1.67;1.57;;;;;;;;;;5117283;27;20424;-79
2023/02/28 11:41:30;;;;;;;2.30;1.57;;;;;;;;;;5136057;27;20396;-80
2023/02/28 11:43:59;;;;;;;1.60;1.50;;;;;;;;;;5117965;27;20507;-80
2023/02/28 11:46:27;;;;;;;2.13;1.73;;;;;;;;;;5116830;27;20482;-81
2023/02/28 11:49:03;;;;;;;2.87;2.17;;;;;;;;;;5117456;27;20802;-81
2023/02/28 11:51:33;;;;;;;2.10;1.70;;;;;;;;;;5096993;28;20449;-81
2023/02/28 11:54:11;;;;;;;3.37;2.00;;;;;;;;;;5115171;28;20534;-81
2023/02/28 11:56:57;;;;;;;2.10;1.70;;;;;;;;;;5114911;28;20413;-81
2023/02/28 11:59:41;;;;;;;2.50;1.80;;;;;;;;;;5115225;28;20782;-79
2023/02/28 12:02:46;;;;;;;2.50;1.80;;;;;;;;;;5096985;28;20413;-80
2023/02/28 12:05:29;;;;;;;2.40;1.70;;;;;;;;;;5012279;28;20500;-81
2023/02/28 12:07:58;;;;;;;2.27;1.57;;;;;;;;;;4996139;28;20496;-81
2023/02/28 12:10:26;;;;;;;2.60;1.50;;;;;;;;;;5074911;28;20446;-81
2023/02/28 12:12:52;;;;;;;3.07;2.00;;;;;;;;;;5115664;28;20407;-82
2023/02/28 12:15:41;;;;;;;1.80;1.70;;;;;;;;;;5115511;28;20409;-81
2023/02/28 12:18:13;;;;;;;3.00;2.50;;;;;;;;;;5096635;28;20549;-81
2023/02/28 12:20:44;;;;;;;1.80;1.70;;;;;;;;;;5096605;28;20536;-80
2023/02/28 12:23:16;;;;;;;3.30;2.63;;;;;;;;;;5096862;28;20413;-81
2023/02/28 12:25:44;;;;;;;2.50;2.30;;;;;;;;;;5096325;28;20449;-81
2023/02/28 12:28:12;;;;;;;2.30;2.10;;;;;;;;;;5097235;28;20421;-81
2023/02/28 12:30:41;;;;;;;2.53;2.30;;;;;;;;;;5096464;28;20904;-82
2023/02/28 12:33:16;;;;;;;3.20;2.20;;;;;;;;;;5096637;28;20815;-81
2023/02/28 12:35:50;;;;;;;3.73;2.10;;;;;;;;;;5114544;28;20507;-81
2023/02/28 12:38:21;;;;;;;3.33;1.90;;;;;;;;;;5096915;28;20408;-81
2023/02/28 12:40:57;;;;;;;3.83;2.33;;;;;;;;;;5114958;28;20407;-81
2023/02/28 12:43:26;;;;;;;3.13;2.20;;;;;;;;;;5097235;28;20420;-81
2023/02/28 12:45:54;;;;;;;4.88;2.20;;;;;;;;;;5097167;28;20467;-81
2023/02/28 12:48:24;;;;;;;4.07;2.50;;;;;;;;;;5103365;28;20250;-81
2023/02/28 12:50:50;;;;;;;3.35;2.30;;;;;;;;;;5099459;28;20175;-81
2023/02/28 12:53:34;;;;;;;2.57;2.30;;;;;;;;;;5081214;28;20180;-80
2023/02/28 12:56:09;;;;;;;2.63;2.43;;;;;;;;;;5099170;28;20501;-80
2023/02/28 12:58:43;;;;;;;2.37;2.00;;;;;;;;;;5100677;28;20397;-80
2023/02/28 13:01:15;;;;;;;3.47;2.13;;;;;;;;;;5082829;28;20449;-80
2023/02/28 13:04:00;;;;;;;3.13;2.30;;;;;;;;;;5101013;28;20259;-83
2023/02/28 13:06:44;;;;;;;4.95;2.30;;;;;;;;;;5099035;28;20319;-81
2023/02/28 13:09:12;;;;;;;2.40;2.20;;;;;;;;;;5100727;28;20223;-80
2023/02/28 13:11:44;;;;;;;2.83;2.60;;;;;;;;;;5100552;28;20160;-81
2023/02/28 13:14:24;;;;;;;2.40;2.17;;;;;;;;;;5101136;28;20207;-81
2023/02/28 13:16:56;;;;;;;3.03;2.25;;;;;;;;;;5099190;28;20214;-81
2023/02/28 13:19:23;;;;;;;2.53;2.33;;;;;;;;;;5097570;28;20704;-81
2023/02/28 13:21:50;;;;;;;3.35;2.40;;;;;;;;;;5104843;28;20171;-81
2023/02/28 13:24:31;;;;;;;2.58;2.08;;;;;;;;;;5100105;28;20180;-81
2023/02/28 13:27:00;;;;;;;2.83;2.10;;;;;;;;;;5108963;28;20630;-82
2023/02/28 13:29:41;;;;;;;3.13;2.45;;;;;;;;;;5100376;28;20544;-81
2023/02/28 13:32:07;;;;;;;3.42;2.60;;;;;;;;;;5100744;28;20616;-80
2023/02/28 13:34:37;;;;;;;2.20;2.00;;;;;;;;;;5098688;28;20204;-81
2023/02/28 13:37:18;;;;;;;2.67;2.17;;;;;;;;;;5098163;28;20266;-81
2023/02/28 13:39:44;;;;;;;3.20;2.20;;;;;;;;;;5096719;28;20449;-80
2023/02/28 13:42:22;;;;;;;1.80;1.70;;;;;;;;;;5100272;28;20443;-81
2023/02/28 13:45:01;;;;;;;2.30;2.00;;;;;;;;;;5099523;28;20549;-80
2023/02/28 13:47:28;;;;;;;3.77;2.53;;;;;;;;;;5099527;28;20853;-81
2023/02/28 13:49:54;;;;;;;2.60;2.40;;;;;;;;;;5117689;28;20417;-80
2023/02/28 13:52:22;;;;;;;2.30;2.10;;;;;;;;;;5117634;28;20431;-81
2023/02/28 13:55:02;;;;;;;3.80;2.70;;;;;;;;;;5117586;28;20401;-80
2023/02/28 13:57:28;;;;;;;2.40;1.90;;;;;;;;;;5100011;28;20736;-80
2023/02/28 14:00:05;;;;;;;2.60;2.40;;;;;;;;;;5116964;28;20415;-81
2023/02/28 14:02:37;;;;;;;3.13;2.53;;;;;;;;;;5098350;28;20421;-81
2023/02/28 14:05:13;;;;;;;3.10;2.80;;;;;;;;;;5115568;28;20457;-80
2023/02/28 14:07:44;;;;;;;3.00;2.70;;;;;;;;;;5107842;28;20418;-80
2023/02/28 14:10:19;;;;;;;2.80;2.47;;;;;;;;;;5078736;28;20425;-80
2023/02/28 14:13:00;;;;;;;2.60;2.30;;;;;;;;;;5110872;28;20401;-81
2023/02/28 14:15:44;;;;;;;3.47;2.40;;;;;;;;;;5117596;28;20409;-80
2023/02/28 14:18:36;;;;;;;2.53;2.30;;;;;;;;;;5117205;28;20417;-81
2023/02/28 14:21:25;;;;;;;3.20;2.57;;;;;;;;;;5094019;28;20417;-81
2023/02/28 14:24:00;;;;;;;3.20;2.90;;;;;;;;;;5092958;28;20470;-79
2023/02/28 14:26:26;;;;;;;2.80;2.47;;;;;;;;;;5096465;28;20498;-81
2023/02/28 14:29:09;;;;;;;4.63;2.53;;;;;;;;;;5078145;28;20438;-80
2023/02/28 14:31:56;;;;;;;4.07;2.70;;;;;;;;;;5109025;27;20924;-80
2023/02/28 14:34:32;;;;;;;3.13;2.37;;;;;;;;;;5098819;28;20990;-81
2023/02/28 14:37:00;;;;;;;3.90;2.80;;;;;;;;;;5098772;28;20529;-80
2023/02/28 14:39:27;;;;;;;3.37;3.00;;;;;;;;;;5116747;28;20401;-80
2023/02/28 14:41:53;;;;;;;3.30;2.53;;;;;;;;;;5097828;28;20417;-80
2023/02/28 14:44:23;;;;;;;3.73;2.90;;;;;;;;;;5097989;28;20417;-80
2023/02/28 14:47:08;;;;;;;2.80;2.60;;;;;;;;;;5097367;28;20907;-79
2023/02/28 14:49:46;;;;;;;2.63;2.20;;;;;;;;;;5116115;28;20422;-79
2023/02/28 14:52:17;;;;;;;2.72;2.50;;;;;;;;;;5097748;28;20851;-79
2023/02/28 14:54:45;;;;;;;4.63;2.43;;;;;;;;;;5097492;28;20175;-79
2023/02/28 14:57:30;;;;;;;6.17;2.73;;;;;;;;;;5098333;28;20775;-79
2023/02/28 15:00:23;;;;;;;2.90;2.60;;;;;;;;;;5098110;28;20411;-79